• Join FlightAware (Why Join?)
  • Login
  • US Flag 
11:14PM EST


 

Airport Tracker/Info


-or-


 

Live Flight TrackerFlight Track Log ✈ BJS444 ✈ 21-Apr-2013 ✈ KJXN - KDLZ

Flight Track Log - Related Links

Times and Time Zones

All times are in EDT time to prevent confusion due to time zone crossing. See the BJS444 flight status page for this flight to view local times or setup timezone preferences in your user account.

Time Position Orientation Groundspeed Altitude Reporting Facility
EDT Latitude Longitude Course Direction KTS MPH feet Rate Location/Type
08:04PM 42.3125 -84.3878 109° East 201 231 5,800  Level FAA TRACON SMA TRACON (SMA)
08:04PM 42.3181 -84.3622 74° East 235 270 6,900 3,000 Climbing FAA TRACON SMA TRACON (SMA)
08:04PM 42.3106 -84.3406 115° Southeast 235 270 7,800 3,480 Climbing FAA TRACON SMA TRACON (SMA)
08:05PM 42.2844 -84.3194 149° Southeast 289 333 9,200 3,900 Climbing FAA TRACON SMA TRACON (SMA)
08:05PM 42.2647 -84.3061 153° Southeast 262 302 10,400 3,300 Climbing FAA TRACON SMA TRACON (SMA)
08:05PM 42.2464 -84.2950 156° South 279 321 11,400 3,420 Climbing FAA TRACON SMA TRACON (SMA)
08:06PM 42.2150 -84.2731 153° Southeast 298 343 12,700 3,000 Climbing FAA TRACON SMA TRACON (SMA)
08:06PM 42.1897 -84.2561 154° Southeast 332 382 13,400 1,920 Climbing FAA TRACON SMA TRACON (SMA)
08:06PM 42.1633 -84.2386 154° Southeast 352 405 14,000 1,320 Climbing FAA TRACON SMA TRACON (SMA)
08:07PM 42.1428 -84.2253 154° Southeast 353 406 14,300 420 Climbing FAA TRACON SMA TRACON (SMA)
08:07PM 42.1428 -84.2253 143° Southeast 353 406 14,300 3,360 Level FAA TRACON SMA TRACON (SMA)
08:09PM 42.0794 -83.6342 109° East  Level FlightAware Approximate
08:09PM 41.8903 -84.0728 156° South 382 440 22,400  Level Cleveland Center
08:10PM 41.7817 -84.0083 156° South 402 463 23,200 1,080 Climbing Cleveland Center
08:11PM 41.6753 -83.9417 155° Southeast 423 487 24,600 660 Climbing Cleveland Center
08:12PM 41.5686 -83.8778 156° South 429 494 24,600 -840 Level Cleveland Center
08:13PM 41.4661 -83.8142 155° Southeast 423 487 23,000 -1,560 Descending Cleveland Center
08:14PM 41.3617 -83.7511 156° South 417 480 21,500 -5,040 Descending Cleveland Center
08:15PM 41.2569 -83.6906 157° South 417 480 13,000 -1,560 Descending Cleveland Center
08:16PM 41.1542 -83.6306 156° South 417 480 18,400 2,100 Climbing Cleveland Center
08:17PM 41.0681 -83.5797 156° South 398 458 17,300 -1,440 Descending Cleveland Center
08:18PM 40.9717 -83.5175 154° Southeast 384 442 15,600 -1,740 Descending Cleveland Center
08:19PM 40.8792 -83.4639 156° South 373 429 13,900 -1,680 Descending Cleveland Center
08:20PM 40.7764 -83.4047 156° South 373 429 12,300 -1,560 Descending Cleveland Center
08:21PM 40.6942 -83.3572 156° South 362 417 10,800 -1,380 Descending Cleveland Center
08:22PM 40.6011 -83.3000 155° Southeast 286 329 9,200 -780 Descending Indianapolis Center
08:23PM 40.5286 -83.2578 156° South 281 323 9,000 -120 Descending Indianapolis Center
08:24PM 40.4667 -83.2239 157° South 274 315 9,000 -300 Level Indianapolis Center
08:25PM 40.4203 -83.1964 156° South 274 315 8,600 -1,380 Descending Indianapolis Center
08:25PM 40.3886 -83.1767 155° Southeast 272 313 7,300 -3,000 Descending Indianapolis Center
08:26PM 40.3225 -83.1533 165° South 258 297 3,900 -2,400 Descending Indianapolis Center
08:27PM 40.3044 -83.2283 253° West 239 275 2,400 -840 Descending Indianapolis Center
08:28PM 40.2842 -83.2039 137° Southeast 189 217 2,200 -420 Descending Indianapolis Center
08:29PM 40.2856 -83.1592 88° East 143 165 1,600 -540 Descending Indianapolis Center
08:31PM 40.2808 -83.1144 98° East 132 152 1,200 -420 Descending Indianapolis Center